Terminal Aerodrome Forecast
Issued by NWS Houston/Galveston, TX

Home | Current Version | Previous Version | Text Only | Print | Product List | Glossary On
Versions: 1 2 3 4 5 6 7 8 9 10 11 12 13 14 15 16 17 18 19 20 21 22 23 24 25 26 27 28 29 30 31 32 33 34 35 36 37 38 39 40 41 42 43 44 45 46 47 48 49 50
503
FTUS44 KHGX 011740
TAFGLS
TAF
KGLS 011740Z 0118/0218 30011KT P6SM VCSH SCT026 BKN050
      TEMPO 0118/0119 4SM HZ BKN030
     FM012000 34013G20KT P6SM SCT050 BKN250
     FM020100 36018G28KT P6SM SCT250
     FM021500 03020G30KT P6SM FEW250=

USA.gov is the U.S. government's official web portal to all federal, state and local government web resources and services.